Impacts TAF Board
For situational awareness. Not to be used for flight planning purposes.
IDs:

KSFB - Sanford Intl, FL, US

Issued at 1749 UTC 21 Sep 2021
Updated at 2100 UTC 21 Sep 2021
Potential Impact None Slight Moderate High
Time2053Z 21/21Z 21/22Z 21/23Z 22/00Z 22/01Z 22/02Z 22/03Z 22/04Z 22/05Z 22/06Z 22/07Z 22/08Z 22/09Z>>
Type OBS PRVL
  [TEMP]  
PRVL
  [TEMP]  
PRVL PRVL PRVL PRVL PRVL PRVL PRVL PRVL PRVL PRVL PRVL
VIS 10 >6
  [3]  
>6
  [3]  
5 5 >6 >6 >6 >6 >6 >6 >6 >6 >6
CIG -- --
  [30]  
--
  [30]  
200 200 -- -- -- -- -- -- -- -- --
Cover SCT SCT
  [BKN]  
SCT
  [BKN]  
BKN BKN SCT SCT SCT SCT SCT SCT SCT SCT SCT
FltCat VFR VFR
  [MVFR]  
VFR
  [MVFR]  
MVFR MVFR VFR VFR VFR VFR VFR VFR VFR VFR VFR
WX -- VCTS
  [TSRA]  
VCTS
  [TSRA]  
-SHRA -SHRA -- -- -- -- -- -- -- -- --
WDir 90 120
[120]
120
[120]
140 140 VRB VRB VRB VRB VRB VRB VRB VRB VRB
WSpd 6 8
  [15]  
8
  [15]  
7 7 4 4 4 4 4 4 4 4 4
WGst -- --
  [25]  
--
  [25]  
-- -- -- -- -- -- -- -- -- -- --
Raw TAF
KSFB 211749Z 2118/2218 33006KT P6SM VCSH SCT025 SCT040
  FM211900 12008KT P6SM VCTS SCT030CB SCT120
  TEMPO 2119/2123 12015G25KT 3SM TSRA BKN030CB
  FM212300 14007KT 5SM -SHRA SCT035 BKN200
  FM220100 VRB04KT P6SM FEW035 SCT150
  FM221700 24006KT P6SM VCSH SCT025 SCT050 BKN250


Raw METAR
KSFB 212053Z 09006KT 10SM FEW047 SCT110 28/24 A3000 RMK AO2 LTG DSNT W AND NW SLP156 T02830239 56014
KSFB 211953Z 11012KT 10SM SCT047 SCT055 BKN075 29/24 A3001 RMK AO2 SLP162 T02890239
KSFB 211853Z VRB03KT 10SM FEW075 31/22 A3002 RMK AO2 LTG DSNT SE AND S SLP164 T03060217
KSFB 211753Z 00000KT 10SM BKN039 31/22 A3004 RMK AO2 SLP170 T03060217 10311 20239 58014

METAR Board
Radar Display
Forecast Discussion
For situational awareness. Not to be used for flight planning purposes.